createdAt,value
2017-07-23T00:00:05.140Z,48.5
2017-07-23T00:02:05.926Z,48.5
2017-07-23T00:04:05.642Z,48.5
2017-07-23T00:06:05.883Z,48.5
2017-07-23T00:08:05.622Z,48.3
2017-07-23T00:10:05.940Z,48.5
2017-07-23T00:12:05.493Z,48.5
2017-07-23T00:14:13.218Z,48.5
2017-07-23T00:16:11.432Z,48.3
2017-07-23T00:18:10.625Z,48.3
2017-07-23T00:20:05.583Z,48.5
2017-07-23T00:22:08.077Z,48.3
2017-07-23T00:24:05.748Z,48.3
2017-07-23T00:26:08.013Z,48.5
2017-07-23T00:28:08.228Z,48.3
2017-07-23T00:30:05.483Z,48.5
2017-07-23T00:32:05.306Z,48.3
2017-07-23T00:34:12.662Z,48.3
2017-07-23T00:36:05.359Z,48.3
2017-07-23T00:38:05.141Z,48.3
2017-07-23T00:40:05.898Z,48.3
2017-07-23T00:42:05.112Z,48.3
2017-07-23T00:44:10.980Z,48.3
2017-07-23T00:46:05.249Z,48.3
2017-07-23T00:48:06.091Z,48.1
2017-07-23T00:50:05.395Z,48.1
2017-07-23T00:52:10.374Z,48.1
2017-07-23T00:54:05.121Z,48.1
2017-07-23T00:56:06.224Z,48.1
2017-07-23T00:58:05.968Z,48.1
2017-07-23T01:00:05.671Z,48.1
2017-07-23T01:02:05.733Z,48
2017-07-23T01:04:05.606Z,48
2017-07-23T01:06:05.306Z,48
2017-07-23T01:08:16.151Z,48
2017-07-23T01:10:05.889Z,48
2017-07-23T01:12:05.591Z,48
2017-07-23T01:14:05.990Z,48
2017-07-23T01:16:05.256Z,48
2017-07-23T01:18:07.711Z,48
2017-07-23T01:20:05.650Z,48
2017-07-23T01:22:12.968Z,47.8
2017-07-23T01:24:05.683Z,47.8
2017-07-23T01:26:05.550Z,48
2017-07-23T01:28:07.760Z,48
2017-07-23T01:30:05.517Z,48
2017-07-23T01:32:05.884Z,48
2017-07-23T01:34:05.571Z,47.9
2017-07-23T01:36:05.346Z,47.8
2017-07-23T01:38:07.634Z,47.5
2017-07-23T01:40:07.844Z,47.5
2017-07-23T01:42:05.539Z,47.5
2017-07-23T01:44:07.873Z,47.3
2017-07-23T01:46:05.131Z,47.4
2017-07-23T01:48:05.897Z,47.3
2017-07-23T01:50:08.162Z,47.3
2017-07-23T01:52:05.898Z,47.3
2017-07-23T01:54:05.113Z,47.3
2017-07-23T01:56:05.872Z,47.2
2017-07-23T01:58:05.595Z,47.1
2017-07-23T02:00:07.894Z,47.1
2017-07-23T02:02:05.244Z,47
2017-07-23T02:04:05.932Z,46.9
2017-07-23T02:06:05.659Z,47.1
2017-07-23T02:08:05.432Z,46.9
2017-07-23T02:10:07.630Z,46.8
2017-07-23T02:12:10.114Z,46.8
2017-07-23T02:14:05.981Z,46.8
2017-07-23T02:16:05.234Z,46.8
2017-07-23T02:18:05.623Z,46.9
2017-07-23T02:20:06.036Z,46.8
2017-07-23T02:22:05.241Z,46.8
2017-07-23T02:24:05.992Z,46.8
2017-07-23T02:26:05.795Z,46.8
2017-07-23T02:28:05.072Z,46.8
2017-07-23T02:30:05.796Z,46.9
2017-07-23T02:32:05.850Z,46.8
2017-07-23T02:34:05.606Z,46.9
2017-07-23T02:36:05.872Z,46.9
2017-07-23T02:38:05.652Z,46.8
2017-07-23T02:40:08.149Z,46.7
2017-07-23T02:42:08.443Z,46.8
2017-07-23T02:44:05.892Z,46.8
2017-07-23T02:46:10.291Z,46.8
2017-07-23T02:48:08.573Z,46.7
2017-07-23T02:50:05.934Z,46.7
2017-07-23T02:52:05.581Z,46.7
2017-07-23T02:54:05.283Z,46.7
2017-07-23T02:56:08.667Z,46.8
2017-07-23T02:58:06.006Z,46.8
2017-07-23T03:00:10.774Z,46.8
2017-07-23T03:02:06.185Z,46.8
2017-07-23T03:04:13.503Z,46.7
2017-07-23T03:06:07.791Z,46.8
2017-07-23T03:08:05.489Z,46.7
2017-07-23T03:10:05.239Z,46.8
2017-07-23T03:12:05.005Z,46.8
2017-07-23T03:14:05.347Z,46.6
2017-07-23T03:16:07.608Z,46.7
2017-07-23T03:18:05.510Z,46.5
2017-07-23T03:20:05.431Z,46.5
2017-07-23T03:22:10.236Z,46.5
2017-07-23T03:24:05.494Z,46.5
2017-07-23T03:26:05.588Z,46.5
2017-07-23T03:28:05.484Z,46.5
2017-07-23T03:30:05.183Z,46.5
2017-07-23T03:32:05.630Z,46.6
2017-07-23T03:34:05.387Z,46.4
2017-07-23T03:36:10.205Z,46.4
2017-07-23T03:38:05.936Z,46.4
2017-07-23T03:40:05.128Z,46.4
2017-07-23T03:42:05.845Z,46.5
2017-07-23T03:44:05.727Z,46.5
2017-07-23T03:46:05.466Z,46.4
2017-07-23T03:48:05.175Z,46.4
2017-07-23T03:50:08.558Z,46.4
2017-07-23T03:52:05.279Z,46.4
2017-07-23T03:54:05.969Z,46.3
2017-07-23T03:56:05.680Z,46.3
2017-07-23T03:58:05.356Z,46.4
2017-07-23T04:00:05.210Z,46.3
2017-07-23T04:02:06.115Z,46.2
2017-07-23T04:04:05.801Z,46.2
2017-07-23T04:06:07.998Z,46
2017-07-23T04:08:05.813Z,46
2017-07-23T04:10:05.557Z,46
2017-07-23T04:12:12.835Z,45.9
2017-07-23T04:14:08.092Z,45.9
2017-07-23T04:16:05.832Z,45.9
2017-07-23T04:18:05.744Z,45.9
2017-07-23T04:20:08.067Z,45.9
2017-07-23T04:22:07.797Z,45.8
2017-07-23T04:24:05.704Z,45.8
2017-07-23T04:26:05.908Z,45.7
2017-07-23T04:28:05.593Z,45.7
2017-07-23T04:30:05.344Z,45.8
2017-07-23T04:32:05.169Z,45.7
2017-07-23T04:34:05.393Z,45.6
2017-07-23T04:36:05.628Z,45.6
2017-07-23T04:38:05.510Z,45.6
2017-07-23T04:40:05.764Z,45.5
2017-07-23T04:42:05.574Z,45.5
2017-07-23T04:44:05.980Z,45.3
2017-07-23T04:46:08.799Z,45.3
2017-07-23T04:48:11.662Z,45.2
2017-07-23T04:50:05.920Z,45.1
2017-07-23T04:52:05.642Z,45.2
2017-07-23T04:54:05.335Z,45.2
2017-07-23T04:56:05.953Z,45.2
2017-07-23T04:58:08.228Z,45.1
2017-07-23T05:00:05.944Z,45.1
2017-07-23T05:02:08.308Z,45.1
2017-07-23T05:04:05.636Z,45
2017-07-23T05:06:05.351Z,45
2017-07-23T05:08:05.136Z,45
2017-07-23T05:10:05.855Z,45.1
2017-07-23T05:12:05.646Z,45
2017-07-23T05:14:05.430Z,45
2017-07-23T05:16:10.252Z,45.1
2017-07-23T05:18:05.205Z,45.1
2017-07-23T05:20:08.604Z,45
2017-07-23T05:22:05.355Z,45
2017-07-23T05:24:05.093Z,45
2017-07-23T05:26:10.877Z,45.1
2017-07-23T05:28:05.561Z,45.1
2017-07-23T05:30:05.402Z,45.1
2017-07-23T05:32:05.304Z,45
2017-07-23T05:34:05.178Z,45
2017-07-23T05:36:11.133Z,44.9
2017-07-23T05:38:05.970Z,44.9
2017-07-23T05:40:08.219Z,45
2017-07-23T05:42:05.941Z,44.8
2017-07-23T05:44:08.361Z,44.9
2017-07-23T05:46:05.628Z,44.9
2017-07-23T05:48:05.326Z,44.9
2017-07-23T05:50:05.251Z,44.9
2017-07-23T05:52:06.180Z,44.9
2017-07-23T05:54:05.974Z,44.8
2017-07-23T05:56:05.808Z,44.7
2017-07-23T05:58:05.088Z,44.9
2017-07-23T06:00:05.844Z,44.8
2017-07-23T06:02:05.924Z,44.8
2017-07-23T06:04:05.631Z,44.8
2017-07-23T06:06:05.413Z,44.8
2017-07-23T06:08:05.248Z,44.7
2017-07-23T06:10:06.027Z,44.6
2017-07-23T06:12:08.334Z,44.4
2017-07-23T06:14:05.082Z,44.6
2017-07-23T06:16:05.805Z,44.7
2017-07-23T06:18:05.884Z,44.7
2017-07-23T06:20:08.238Z,44.5
2017-07-23T06:22:05.638Z,44.3
2017-07-23T06:24:08.239Z,43.5
2017-07-23T06:26:06.115Z,43.5
2017-07-23T06:28:05.794Z,44
2017-07-23T06:30:05.496Z,43.6
2017-07-23T06:32:05.319Z,44
2017-07-23T06:34:05.039Z,44.1
2017-07-23T06:36:05.790Z,44.1
2017-07-23T06:38:05.678Z,44.1
2017-07-23T06:40:05.489Z,43.9
2017-07-23T06:42:10.274Z,43.9
2017-07-23T06:44:06.154Z,44
2017-07-23T06:46:08.407Z,44.1
2017-07-23T06:48:10.169Z,44.1
2017-07-23T06:50:05.884Z,44.1
2017-07-23T06:52:08.148Z,44.1
2017-07-23T06:54:05.873Z,44.1
2017-07-23T06:56:05.697Z,44
2017-07-23T06:58:05.412Z,44
2017-07-23T07:00:05.126Z,44
2017-07-23T07:02:05.962Z,44.1
2017-07-23T07:04:05.258Z,44.1
2017-07-23T07:06:05.517Z,44
2017-07-23T07:08:07.912Z,44.3
2017-07-23T07:10:08.161Z,44.4
2017-07-23T07:12:05.549Z,44.4
2017-07-23T07:14:07.746Z,44.6
2017-07-23T07:16:18.098Z,44.4
2017-07-23T07:18:05.022Z,44.4
2017-07-23T07:20:08.391Z,44.8
2017-07-23T07:22:05.115Z,44.8
2017-07-23T07:24:05.306Z,44.5
2017-07-23T07:26:06.155Z,44.7
2017-07-23T07:28:05.255Z,44.6
2017-07-23T07:30:05.031Z,44.7
2017-07-23T07:32:05.928Z,44.5
2017-07-23T07:34:05.678Z,44.7
2017-07-23T07:36:05.389Z,44.7
2017-07-23T07:38:05.501Z,44.7
2017-07-23T07:40:07.747Z,44.7
2017-07-23T07:42:05.464Z,44.6
2017-07-23T07:44:08.033Z,44.6
2017-07-23T07:46:05.725Z,44.6
2017-07-23T07:48:07.969Z,44.6
2017-07-23T07:50:05.836Z,44.6
2017-07-23T07:52:05.570Z,44.4
2017-07-23T07:54:05.333Z,44.6
2017-07-23T07:56:15.271Z,44.6
2017-07-23T07:58:05.160Z,44.6
2017-07-23T08:00:11.039Z,44.7
2017-07-23T08:02:13.502Z,44.8
2017-07-23T08:04:05.158Z,44.8
2017-07-23T08:06:05.882Z,44.8
2017-07-23T08:08:05.734Z,44.8
2017-07-23T08:10:05.429Z,44.8
2017-07-23T08:12:05.192Z,44.6
2017-07-23T08:14:05.938Z,44.4
2017-07-23T08:16:05.780Z,44.4
2017-07-23T08:18:05.239Z,44.4
2017-07-23T08:20:05.634Z,44.3
2017-07-23T08:22:06.353Z,44.4
2017-07-23T08:24:05.248Z,44.2
2017-07-23T08:26:06.021Z,44.3
2017-07-23T08:28:08.238Z,44.3
2017-07-23T08:30:16.164Z,44
2017-07-23T08:32:05.789Z,44.2
2017-07-23T08:34:05.481Z,44.1
2017-07-23T08:36:08.407Z,43.9
2017-07-23T08:38:05.616Z,43.9
2017-07-23T08:40:10.359Z,43.5
2017-07-23T08:42:05.410Z,43.4
2017-07-23T08:44:10.200Z,43.4
2017-07-23T08:46:06.056Z,43.6
2017-07-23T08:48:06.052Z,43.5
2017-07-23T08:50:05.769Z,43.1
2017-07-23T08:52:05.548Z,43.2
2017-07-23T08:54:10.478Z,43.1
2017-07-23T08:56:07.965Z,43.1
2017-07-23T08:58:08.254Z,43.1
2017-07-23T09:00:14.841Z,43.1
2017-07-23T09:02:05.793Z,43.1
2017-07-23T09:04:10.603Z,43.1
2017-07-23T09:06:05.385Z,43.1
2017-07-23T09:08:07.625Z,42.8
2017-07-23T09:10:05.378Z,42.8
2017-07-23T09:12:05.650Z,42.8
2017-07-23T09:14:05.413Z,42.6
2017-07-23T09:16:05.376Z,42.7
2017-07-23T09:18:05.596Z,42.8
2017-07-23T09:20:10.903Z,42.7
2017-07-23T09:22:05.187Z,42.9
2017-07-23T09:24:13.648Z,42.9
2017-07-23T09:26:10.904Z,42.7
2017-07-23T09:28:08.190Z,43
2017-07-23T09:30:08.501Z,42.9
2017-07-23T09:32:13.049Z,42.9
2017-07-23T09:34:05.804Z,42.9
2017-07-23T09:36:05.620Z,42.7
2017-07-23T09:38:05.346Z,42.8
2017-07-23T09:40:05.566Z,42.8
2017-07-23T09:42:05.374Z,42.7
2017-07-23T09:44:05.310Z,42.6
2017-07-23T09:46:05.021Z,42.5
2017-07-23T09:48:05.979Z,42.4
2017-07-23T09:50:06.136Z,42.4
2017-07-23T09:52:05.578Z,42.4
2017-07-23T09:54:08.078Z,42.2
2017-07-23T09:56:05.807Z,42.3
2017-07-23T09:58:05.744Z,42.1
2017-07-23T10:00:06.141Z,42
2017-07-23T10:02:05.597Z,42
2017-07-23T10:04:05.598Z,41.9
2017-07-23T10:06:05.953Z,41.7
2017-07-23T10:08:14.093Z,41.7
2017-07-23T10:10:06.416Z,41.6
2017-07-23T10:12:05.565Z,41.6
2017-07-23T10:14:05.512Z,41.5
2017-07-23T10:16:05.445Z,41.7
2017-07-23T10:18:06.428Z,41.7
2017-07-23T10:20:06.360Z,41.5
2017-07-23T10:22:05.069Z,41.5
2017-07-23T10:24:05.826Z,41.4
2017-07-23T10:26:05.653Z,41.4
2017-07-23T10:28:05.394Z,41.3
2017-07-23T10:30:06.157Z,41.2
2017-07-23T10:32:08.367Z,41.2
2017-07-23T10:34:05.613Z,41.2
2017-07-23T10:36:06.254Z,41.3
2017-07-23T10:38:07.543Z,41.4
2017-07-23T10:40:05.360Z,41.3
2017-07-23T10:42:05.424Z,41.2
2017-07-23T10:44:13.247Z,41.4
2017-07-23T10:46:05.964Z,41.3
2017-07-23T10:48:05.896Z,41.3
2017-07-23T10:50:05.675Z,41.2
2017-07-23T10:52:05.380Z,41.2
2017-07-23T10:54:05.139Z,41.3
2017-07-23T10:56:05.748Z,41.3
2017-07-23T10:58:07.987Z,41.2
2017-07-23T11:00:05.326Z,41.2
2017-07-23T11:02:05.070Z,41.3
2017-07-23T11:04:05.883Z,41.4
2017-07-23T11:06:05.768Z,41.5
2017-07-23T11:08:05.055Z,41.4
2017-07-23T11:10:08.331Z,41.4
2017-07-23T11:12:05.213Z,41.5
2017-07-23T11:14:05.983Z,41.5
2017-07-23T11:16:05.687Z,41.4
2017-07-23T11:18:05.775Z,41.2
2017-07-23T11:20:10.756Z,41.4
2017-07-23T11:22:08.050Z,41.4
2017-07-23T11:24:05.826Z,41.4
2017-07-23T11:26:05.525Z,41.4
2017-07-23T11:28:05.896Z,41.4
2017-07-23T11:30:06.004Z,41.4
2017-07-23T11:32:05.723Z,41.4
2017-07-23T11:34:07.941Z,41.3
2017-07-23T11:36:05.809Z,41.3
2017-07-23T11:38:05.470Z,41.2
2017-07-23T11:40:07.760Z,41.1
2017-07-23T11:42:10.565Z,41.2
2017-07-23T11:44:05.421Z,41.2
2017-07-23T11:46:07.655Z,41.1
2017-07-23T11:48:05.540Z,41.1
2017-07-23T11:50:10.387Z,41.1
2017-07-23T11:52:05.714Z,41
2017-07-23T11:54:10.608Z,40.9
2017-07-23T11:56:05.445Z,40.7
2017-07-23T11:58:07.706Z,40.8
2017-07-23T12:00:05.597Z,40.9
2017-07-23T12:02:10.391Z,40.9
2017-07-23T12:04:07.621Z,40.9
2017-07-23T12:06:05.524Z,41.1
2017-07-23T12:08:05.853Z,40.9
2017-07-23T12:10:05.607Z,40.9
2017-07-23T12:12:05.558Z,40.8
2017-07-23T12:14:05.319Z,40.8
2017-07-23T12:16:05.170Z,40.8
2017-07-23T12:18:05.232Z,40.7
2017-07-23T12:20:10.562Z,40.8
2017-07-23T12:22:05.342Z,40.8
2017-07-23T12:24:05.109Z,40.8
2017-07-23T12:26:06.013Z,40.9
2017-07-23T12:28:07.837Z,41
2017-07-23T12:30:05.602Z,41
2017-07-23T12:32:07.985Z,41.1
2017-07-23T12:34:05.729Z,41.1
2017-07-23T12:36:05.833Z,41
2017-07-23T12:38:05.569Z,40.9
2017-07-23T12:40:05.525Z,40.9
2017-07-23T12:42:05.574Z,41
2017-07-23T12:44:12.885Z,40.6
2017-07-23T12:46:08.138Z,40.6
2017-07-23T12:48:13.674Z,40.7
2017-07-23T12:50:05.415Z,40.7
2017-07-23T12:52:07.751Z,40.9
2017-07-23T12:54:11.130Z,41.1
2017-07-23T12:56:05.468Z,41.1
2017-07-23T12:58:08.222Z,41.3
2017-07-23T13:00:06.144Z,41.3
2017-07-23T13:02:05.358Z,41.4
2017-07-23T13:04:05.347Z,41.6
2017-07-23T13:06:05.768Z,41.6
2017-07-23T13:08:10.503Z,41.9
2017-07-23T13:10:05.202Z,41.9
2017-07-23T13:12:06.041Z,41.9
2017-07-23T13:14:05.282Z,42
2017-07-23T13:16:05.967Z,42.2
2017-07-23T13:18:07.760Z,42.2
2017-07-23T13:20:06.098Z,42.3
2017-07-23T13:22:05.795Z,42.4
2017-07-23T13:24:05.569Z,42.4
2017-07-23T13:26:07.877Z,42.6
2017-07-23T13:28:05.608Z,42.6
2017-07-23T13:30:10.546Z,42.7
2017-07-23T13:32:05.502Z,42.7
2017-07-23T13:34:05.723Z,42.6
2017-07-23T13:36:08.185Z,42.7
2017-07-23T13:38:06.095Z,42.7
2017-07-23T13:40:05.405Z,42.7
2017-07-23T13:42:05.570Z,42.7
2017-07-23T13:44:05.275Z,42.9
2017-07-23T13:46:05.977Z,42.8
2017-07-23T13:48:05.909Z,42.7
2017-07-23T13:50:05.171Z,42.8
2017-07-23T13:52:06.021Z,42.7
2017-07-23T13:54:05.734Z,42.7
2017-07-23T13:56:05.624Z,42.7
2017-07-23T13:58:05.985Z,42.7
2017-07-23T14:00:05.769Z,42.6
2017-07-23T14:02:05.076Z,42.6
2017-07-23T14:04:05.834Z,42.6
2017-07-23T14:06:05.912Z,42.5
2017-07-23T14:08:06.120Z,42.5
2017-07-23T14:10:13.404Z,42.5
2017-07-23T14:12:10.910Z,42.5
2017-07-23T14:14:05.631Z,42.5
2017-07-23T14:16:05.879Z,42.4
2017-07-23T14:18:05.973Z,42.3
2017-07-23T14:20:05.616Z,42.3
2017-07-23T14:22:08.445Z,42.2
2017-07-23T14:24:11.026Z,42.1
2017-07-23T14:26:07.790Z,42
2017-07-23T14:28:05.529Z,42
2017-07-23T14:30:05.395Z,42
2017-07-23T14:32:05.135Z,41.9
2017-07-23T14:34:08.336Z,41.9
2017-07-23T14:36:05.367Z,41.9
2017-07-23T14:38:05.292Z,41.9
2017-07-23T14:40:06.221Z,41.8
2017-07-23T14:42:11.287Z,41.8
2017-07-23T14:44:05.198Z,41.8
2017-07-23T14:46:05.925Z,41.8
2017-07-23T14:48:05.963Z,41.9
2017-07-23T14:50:05.909Z,41.8
2017-07-23T14:52:05.986Z,41.8
2017-07-23T14:54:10.666Z,41.8
2017-07-23T14:56:05.394Z,41.8
2017-07-23T14:58:15.241Z,41.8
2017-07-23T15:00:06.142Z,41.9
2017-07-23T15:02:05.961Z,41.9
2017-07-23T15:04:08.193Z,42
2017-07-23T15:06:05.989Z,42
2017-07-23T15:08:05.732Z,42.2
2017-07-23T15:10:08.162Z,42.5
2017-07-23T15:12:05.579Z,42.5
2017-07-23T15:14:10.589Z,42.7
2017-07-23T15:16:06.822Z,42.7
2017-07-23T15:18:10.907Z,42.9
2017-07-23T15:20:05.609Z,42.8
2017-07-23T15:22:10.392Z,43
2017-07-23T15:24:05.156Z,43
2017-07-23T15:26:05.840Z,43.1
2017-07-23T15:28:05.724Z,43.2
2017-07-23T15:30:06.168Z,43.2
2017-07-23T15:32:05.943Z,43.3
2017-07-23T15:34:05.774Z,43.3
2017-07-23T15:36:05.528Z,43.4
2017-07-23T15:38:05.259Z,43.4
2017-07-23T15:40:08.478Z,43.5
2017-07-23T15:42:10.472Z,43.5
2017-07-23T15:44:05.837Z,43.6
2017-07-23T15:46:05.698Z,43.6
2017-07-23T15:48:05.554Z,43.7
2017-07-23T15:50:05.241Z,43.8
2017-07-23T15:52:07.134Z,43.9
2017-07-23T15:54:08.885Z,44
2017-07-23T15:56:05.387Z,43.9
2017-07-23T15:58:05.305Z,43.9
2017-07-23T16:00:05.634Z,44
2017-07-23T16:02:10.407Z,44.1
2017-07-23T16:04:05.106Z,44.1
2017-07-23T16:06:06.014Z,44.1
2017-07-23T16:08:05.841Z,44.1
2017-07-23T16:10:05.605Z,44.2
2017-07-23T16:12:05.339Z,44.3
2017-07-23T16:14:07.589Z,44.3
2017-07-23T16:16:05.593Z,44.3
2017-07-23T16:18:07.764Z,44.3
2017-07-23T16:20:10.515Z,44.3
2017-07-23T16:22:07.805Z,44.3
2017-07-23T16:24:08.428Z,44.5
2017-07-23T16:26:05.369Z,44.4
2017-07-23T16:28:05.695Z,44.4
2017-07-23T16:30:08.476Z,44.5
2017-07-23T16:32:05.258Z,44.5
2017-07-23T16:34:05.037Z,44.5
2017-07-23T16:36:05.934Z,44.7
2017-07-23T16:38:08.307Z,44.6
2017-07-23T16:40:05.077Z,44.6
2017-07-23T16:42:08.118Z,44.7
2017-07-23T16:44:05.871Z,44.7
2017-07-23T16:46:05.582Z,44.6
2017-07-23T16:48:06.166Z,44.6
2017-07-23T16:50:05.856Z,44.6
2017-07-23T16:52:05.640Z,44.7
2017-07-23T16:54:05.486Z,44.7
2017-07-23T16:56:05.693Z,44.7
2017-07-23T16:58:05.556Z,44.6
2017-07-23T17:00:06.079Z,44.6
2017-07-23T17:02:05.303Z,44.6
2017-07-23T17:04:05.203Z,44.7
2017-07-23T17:06:05.925Z,44.8
2017-07-23T17:08:05.192Z,44.7
2017-07-23T17:10:05.990Z,44.7
2017-07-23T17:12:08.517Z,44.7
2017-07-23T17:14:05.235Z,44.7
2017-07-23T17:16:05.417Z,44.8
2017-07-23T17:18:08.113Z,44.8
2017-07-23T17:20:05.942Z,44.6
2017-07-23T17:22:05.657Z,44.7
2017-07-23T17:24:06.297Z,44.7
2017-07-23T17:26:11.045Z,44.7
2017-07-23T17:28:05.727Z,44.7
2017-07-23T17:30:05.503Z,44.7
2017-07-23T17:32:05.237Z,44.7
2017-07-23T17:34:08.031Z,44.7
2017-07-23T17:36:08.632Z,44.7
2017-07-23T17:38:05.381Z,44.7
2017-07-23T17:40:05.115Z,44.7
2017-07-23T17:42:08.379Z,44.7
2017-07-23T17:44:07.572Z,44.7
2017-07-23T17:46:07.859Z,44.7
2017-07-23T17:48:05.570Z,44.7
2017-07-23T17:50:05.274Z,44.7
2017-07-23T17:52:06.080Z,44.7
2017-07-23T17:54:05.794Z,44.7
2017-07-23T17:56:05.492Z,44.7
2017-07-23T17:58:05.183Z,44.6
2017-07-23T18:00:08.625Z,44.5
2017-07-23T18:02:05.073Z,44.7
2017-07-23T18:04:08.348Z,44.7
2017-07-23T18:06:08.144Z,44.5
2017-07-23T18:08:05.849Z,44.5
2017-07-23T18:10:05.558Z,44.5
2017-07-23T18:12:08.146Z,44.5
2017-07-23T18:14:07.917Z,44.4
2017-07-23T18:16:08.106Z,44.4
2017-07-23T18:18:05.995Z,44.4
2017-07-23T18:20:05.710Z,44.4
2017-07-23T18:22:07.703Z,44.4
2017-07-23T18:24:05.784Z,44.4
2017-07-23T18:26:06.002Z,44.3
2017-07-23T18:28:05.699Z,44.2
2017-07-23T18:30:08.144Z,44.2
2017-07-23T18:32:07.721Z,44.2
2017-07-23T18:34:05.387Z,44.2
2017-07-23T18:36:07.754Z,44.2
2017-07-23T18:38:05.460Z,44.2
2017-07-23T18:40:05.699Z,44.1
2017-07-23T18:42:05.528Z,44.2
2017-07-23T18:44:05.326Z,44
2017-07-23T18:46:07.615Z,44.3
2017-07-23T18:48:05.185Z,44.3
2017-07-23T18:50:05.954Z,44.2
2017-07-23T18:52:05.720Z,44.3
2017-07-23T18:54:06.261Z,44.3
2017-07-23T18:56:08.714Z,44.3
2017-07-23T18:58:07.956Z,44.2
2017-07-23T19:00:08.347Z,44.2
2017-07-23T19:02:05.061Z,44.3
2017-07-23T19:04:05.777Z,44.3
2017-07-23T19:06:05.518Z,44.3
2017-07-23T19:08:12.819Z,44
2017-07-23T19:10:05.501Z,44
2017-07-23T19:12:10.295Z,43.9
2017-07-23T19:14:06.010Z,43.9
2017-07-23T19:16:08.229Z,43.9
2017-07-23T19:18:05.215Z,43.9
2017-07-23T19:20:06.047Z,44
2017-07-23T19:22:08.466Z,44
2017-07-23T19:24:05.384Z,44
2017-07-23T19:26:05.314Z,43.8
2017-07-23T19:28:07.725Z,43.6
2017-07-23T19:30:05.856Z,43.7
2017-07-23T19:32:10.610Z,44
2017-07-23T19:34:05.303Z,44
2017-07-23T19:36:06.022Z,43.5
2017-07-23T19:38:05.728Z,43.6
2017-07-23T19:40:05.397Z,43.9
2017-07-23T19:42:05.172Z,44.2
2017-07-23T19:44:10.884Z,44.4
2017-07-23T19:46:07.652Z,44.4
2017-07-23T19:48:06.495Z,44.3
2017-07-23T19:50:05.228Z,44.5
2017-07-23T19:52:05.961Z,44.5
2017-07-23T19:54:05.890Z,44.1
2017-07-23T19:56:10.765Z,44.3
2017-07-23T19:58:08.552Z,44.4
2017-07-23T20:00:05.353Z,44.2
2017-07-23T20:02:07.625Z,44.4
2017-07-23T20:04:05.317Z,44.5
2017-07-23T20:06:05.105Z,44.3
2017-07-23T20:08:05.489Z,44.3
2017-07-23T20:10:07.722Z,44.3
2017-07-23T20:12:05.441Z,44.3
2017-07-23T20:14:05.110Z,44.3
2017-07-23T20:16:05.970Z,44.3
2017-07-23T20:18:13.460Z,44.3
2017-07-23T20:20:10.232Z,44.1
2017-07-23T20:22:05.920Z,44.1
2017-07-23T20:24:05.570Z,44.3
2017-07-23T20:26:07.796Z,44.1
2017-07-23T20:28:05.510Z,44.3
2017-07-23T20:30:05.352Z,44.1
2017-07-23T20:32:08.240Z,44.1
2017-07-23T20:34:08.555Z,44.3
2017-07-23T20:36:05.399Z,44.1
2017-07-23T20:38:05.139Z,44.1
2017-07-23T20:40:05.382Z,44.1
2017-07-23T20:42:05.433Z,44.1
2017-07-23T20:44:10.190Z,44.1
2017-07-23T20:46:05.895Z,44.1
2017-07-23T20:48:05.959Z,44.4
2017-07-23T20:50:05.265Z,44.6
2017-07-23T20:52:06.051Z,44.4
2017-07-23T20:54:05.624Z,44.5
2017-07-23T20:56:05.332Z,44.5
2017-07-23T20:58:05.047Z,44.5
2017-07-23T21:00:07.900Z,44.6
2017-07-23T21:02:06.095Z,44.6
2017-07-23T21:04:05.956Z,44.6
2017-07-23T21:06:05.661Z,44.7
2017-07-23T21:08:05.428Z,44.7
2017-07-23T21:10:08.378Z,44.2
2017-07-23T21:12:05.162Z,44.3
2017-07-23T21:14:05.877Z,44.3
2017-07-23T21:16:10.653Z,44.4
2017-07-23T21:18:10.690Z,44.6
2017-07-23T21:20:13.550Z,44.5
2017-07-23T21:22:05.200Z,44.5
2017-07-23T21:24:05.943Z,44.5
2017-07-23T21:26:05.714Z,44.4
2017-07-23T21:28:05.461Z,44.4
2017-07-23T21:30:05.564Z,44.4
2017-07-23T21:32:05.497Z,44.3
2017-07-23T21:34:05.287Z,44.1
2017-07-23T21:36:07.833Z,44
2017-07-23T21:38:05.789Z,44.2
2017-07-23T21:40:05.067Z,44.2
2017-07-23T21:42:06.196Z,44
2017-07-23T21:44:05.860Z,44.3
2017-07-23T21:46:05.750Z,44.2
2017-07-23T21:48:05.660Z,44
2017-07-23T21:50:05.398Z,43.8
2017-07-23T21:52:05.442Z,43.9
2017-07-23T21:54:05.775Z,43.8
2017-07-23T21:56:07.585Z,43.4
2017-07-23T21:58:05.282Z,43.4
2017-07-23T22:00:08.575Z,43.6
2017-07-23T22:02:05.955Z,43.6
2017-07-23T22:04:05.729Z,43.5
2017-07-23T22:06:13.201Z,43.8
2017-07-23T22:08:05.198Z,43.6
2017-07-23T22:10:05.967Z,43.7
2017-07-23T22:12:08.496Z,43.9
2017-07-23T22:14:08.307Z,44
2017-07-23T22:16:05.073Z,44
2017-07-23T22:18:06.213Z,43.9
2017-07-23T22:20:05.993Z,43.9
2017-07-23T22:22:08.199Z,43.9
2017-07-23T22:24:06.224Z,43.9
2017-07-23T22:26:06.033Z,43.7
2017-07-23T22:28:05.263Z,43.7
2017-07-23T22:30:08.515Z,44
2017-07-23T22:32:05.254Z,43.8
2017-07-23T22:34:11.041Z,44.3
2017-07-23T22:36:05.844Z,44.3
2017-07-23T22:38:05.616Z,44.2
2017-07-23T22:40:05.458Z,44.3
2017-07-23T22:42:05.341Z,44.2
2017-07-23T22:44:05.107Z,44.2
2017-07-23T22:46:05.767Z,44.3
2017-07-23T22:48:10.745Z,44.3
2017-07-23T22:50:05.577Z,44.3
2017-07-23T22:52:05.353Z,44.3
2017-07-23T22:54:05.190Z,44
2017-07-23T22:56:05.978Z,44.2
2017-07-23T22:58:05.655Z,44.2
2017-07-23T23:00:06.069Z,44.2
2017-07-23T23:02:05.805Z,44.1
2017-07-23T23:04:07.530Z,44.1
2017-07-23T23:06:05.378Z,44.1
2017-07-23T23:08:10.146Z,44.1
2017-07-23T23:10:05.504Z,44.1
2017-07-23T23:12:06.093Z,44.1
2017-07-23T23:14:08.333Z,44.3
2017-07-23T23:16:12.610Z,44.1
2017-07-23T23:18:05.674Z,44.1
2017-07-23T23:20:07.906Z,44.1
2017-07-23T23:22:08.133Z,44.3
2017-07-23T23:24:06.132Z,44.3
2017-07-23T23:26:05.901Z,44.3
2017-07-23T23:28:05.708Z,44.3
2017-07-23T23:30:05.519Z,44.3
2017-07-23T23:32:05.298Z,44.3
2017-07-23T23:34:08.516Z,44.3
2017-07-23T23:36:06.071Z,44.3
2017-07-23T23:38:05.299Z,44.3
2017-07-23T23:40:05.090Z,44.3
2017-07-23T23:42:11.110Z,44.3
2017-07-23T23:44:05.431Z,44.3
2017-07-23T23:46:05.134Z,44.3
2017-07-23T23:48:06.199Z,44.3
2017-07-23T23:50:05.991Z,44.3
2017-07-23T23:52:05.759Z,44.3
2017-07-23T23:54:05.643Z,44.3
2017-07-23T23:56:07.855Z,44.3
2017-07-23T23:58:10.615Z,44.3
